Time;durP1;ratioP1;P1;durP2;ratioP2;P2;SDS_P1;SDS_P2;PMS_P1;PMS_P2;Temp;Humidity;BMP_temperature;BMP_pressure;BME280_temperature;BME280_humidity;BME280_pressure;Samples;Min_cycle;Max_cycle;Signal;HPM_P1;HPM_P2
2021/10/01 00:01:46;;;;;;;13.58;7.60;;;;;;;5.19;73.77;101909.52;1791568;78;22746;-70
2021/10/01 00:04:13;;;;;;;12.18;8.03;;;;;;;5.21;73.90;101904.22;1813497;78;20944;-69
2021/10/01 00:06:41;;;;;;;11.03;8.28;;;;;;;5.22;73.99;101908.13;1795932;78;21026;-69
2021/10/01 00:09:08;;;;;;;11.68;8.05;;;;;;;5.22;74.08;101910.75;1791436;78;21474;-69
2021/10/01 00:11:35;;;;;;;12.23;7.55;;;;;;;5.22;74.11;101902.89;1813523;78;21054;-70
2021/10/01 00:14:04;;;;;;;9.63;7.90;;;;;;;5.22;74.12;101900.27;1793046;78;20951;-70
2021/10/01 00:16:32;;;;;;;11.68;7.90;;;;;;;5.22;74.14;101898.96;1761421;80;21480;-70
2021/10/01 00:18:59;;;;;;;10.65;7.97;;;;;;;5.22;74.20;101894.17;1798243;78;21077;-70
2021/10/01 00:21:27;;;;;;;11.38;7.60;;;;;;;5.20;74.23;101899.44;1793632;78;21442;-70
2021/10/01 00:23:54;;;;;;;9.58;7.85;;;;;;;5.23;74.24;101898.50;1744266;80;20973;-70
2021/10/01 00:26:23;;;;;;;11.20;8.05;;;;;;;5.22;74.26;101898.96;1765161;80;20983;-69
2021/10/01 00:28:51;;;;;;;9.40;7.75;;;;;;;5.23;74.21;101895.88;1762931;80;21038;-70
2021/10/01 00:31:18;;;;;;;11.28;7.80;;;;;;;5.23;74.18;101900.67;1775321;80;21559;-72
2021/10/01 00:33:46;;;;;;;8.93;7.67;;;;;;;5.23;74.18;101903.74;1783492;80;21499;-70
2021/10/01 00:36:13;;;;;;;10.15;8.13;;;;;;;5.22;74.24;101900.27;1785280;80;20932;-71
2021/10/01 00:38:40;;;;;;;11.63;8.40;;;;;;;5.20;74.20;101899.89;1813107;78;22565;-71
2021/10/01 00:41:07;;;;;;;10.43;8.08;;;;;;;5.17;74.30;101892.55;1823475;78;20924;-69
2021/10/01 00:43:34;;;;;;;10.85;7.58;;;;;;;5.16;74.35;101893.45;1822607;78;20951;-69
2021/10/01 00:46:01;;;;;;;10.80;8.60;;;;;;;5.16;74.33;101889.98;1823361;78;21054;-69
2021/10/01 00:48:28;;;;;;;10.48;8.20;;;;;;;5.15;74.35;101889.58;1810432;78;21085;-70
2021/10/01 00:50:55;;;;;;;9.75;7.75;;;;;;;5.14;74.35;101891.34;1799349;78;21771;-70
2021/10/01 00:53:22;;;;;;;11.05;8.23;;;;;;;5.17;74.34;101894.31;1796330;78;20958;-70
2021/10/01 00:55:50;;;;;;;11.48;7.90;;;;;;;5.18;74.25;101890.33;1776994;78;21108;-69
2021/10/01 00:58:18;;;;;;;12.28;8.63;;;;;;;5.17;74.10;101891.23;1812643;78;21034;-70
2021/10/01 01:03:31;;;;;;;10.32;7.60;;;;;;;5.10;73.97;101887.55;1803250;78;21837;-69
2021/10/01 01:06:09;;;;;;;11.33;7.83;;;;;;;5.04;73.77;101883.39;1795269;78;21493;-69
2021/10/01 01:09:07;;;;;;;11.75;7.92;;;;;;;4.99;73.67;101887.90;1747784;81;20935;-69
2021/10/01 01:12:02;;;;;;;11.40;8.23;;;;;;;4.94;73.56;101882.42;1773293;80;20980;-69
2021/10/01 01:14:54;;;;;;;12.30;7.72;;;;;;;4.87;73.56;101881.30;1748535;80;21018;-69
2021/10/01 01:17:55;;;;;;;11.57;8.70;;;;;;;4.84;73.46;101881.86;1801622;78;21477;-69
2021/10/01 01:20:49;;;;;;;12.20;8.15;;;;;;;4.79;73.39;101881.13;1742416;81;20998;-70
2021/10/01 01:23:51;;;;;;;12.63;8.03;;;;;;;4.72;73.44;101869.98;1729267;81;21054;-68
2021/10/01 01:26:35;;;;;;;12.53;8.05;;;;;;;4.69;73.41;101874.02;1713864;80;21455;-70
2021/10/01 01:29:10;;;;;;;11.93;8.20;;;;;;;4.65;73.36;101877.64;1812135;78;21502;-70
2021/10/01 01:31:58;;;;;;;12.50;8.83;;;;;;;4.65;73.47;101880.72;1812342;78;21869;-70
2021/10/01 01:34:40;;;;;;;12.82;9.10;;;;;;;4.65;73.74;101876.34;1823471;77;20970;-71
2021/10/01 01:37:27;;;;;;;13.53;9.65;;;;;;;4.66;73.95;101873.27;1798312;78;21066;-70
2021/10/01 01:39:54;;;;;;;16.60;9.80;;;;;;;4.68;74.20;101867.53;1805914;78;21504;-69
2021/10/01 01:42:21;;;;;;;18.87;11.28;;;;;;;4.70;74.40;101866.56;1798591;78;21015;-69
2021/10/01 01:44:48;;;;;;;17.50;10.43;;;;;;;4.74;74.56;101868.66;1800861;78;22646;-69
2021/10/01 01:47:16;;;;;;;15.80;10.58;;;;;;;4.78;74.70;101869.80;1763543;80;20979;-69
2021/10/01 01:49:44;;;;;;;19.23;10.30;;;;;;;4.81;74.75;101865.77;1793387;78;20935;-69
2021/10/01 01:52:11;;;;;;;18.87;11.00;;;;;;;4.82;74.76;101867.94;1764791;80;21007;-69
2021/10/01 01:54:37;;;;;;;17.65;10.18;;;;;;;4.82;74.77;101871.41;1818900;78;20994;-69
2021/10/01 01:57:04;;;;;;;17.40;10.28;;;;;;;4.83;74.80;101871.84;1754833;80;22537;-70
2021/10/01 01:59:31;;;;;;;17.60;10.68;;;;;;;4.82;74.86;101876.64;1733912;78;21007;-70
2021/10/01 02:01:58;;;;;;;21.02;10.85;;;;;;;4.83;74.90;101877.53;1811265;78;21090;-69
2021/10/01 02:04:26;;;;;;;17.85;10.38;;;;;;;4.83;74.98;101878.84;1796185;78;21023;-69
2021/10/01 02:06:52;;;;;;;15.68;10.35;;;;;;;4.82;75.07;101882.33;1812690;78;20996;-72
2021/10/01 02:09:21;;;;;;;16.45;10.53;;;;;;;4.81;75.12;101882.78;1796220;80;21210;-69
2021/10/01 02:11:49;;;;;;;13.32;10.05;;;;;;;4.82;75.12;101884.50;1816672;78;21006;-69
2021/10/01 02:14:23;;;;;;;13.90;10.40;;;;;;;4.83;75.11;101881.45;1782077;78;20999;-70
2021/10/01 02:16:51;;;;;;;15.20;10.15;;;;;;;4.82;75.16;101881.02;1801469;78;21034;-68
2021/10/01 02:19:20;;;;;;;15.10;10.00;;;;;;;4.80;75.18;101885.00;1802893;78;21034;-70
2021/10/01 02:21:48;;;;;;;14.58;9.83;;;;;;;4.81;75.20;101885.86;1793971;78;21869;-69
2021/10/01 02:24:15;;;;;;;15.20;10.25;;;;;;;4.82;75.21;101882.33;1796165;78;21455;-68
2021/10/01 02:26:51;;;;;;;14.95;9.95;;;;;;;4.82;75.28;101882.33;1766349;78;21050;-69
2021/10/01 02:29:46;;;;;;;15.25;10.38;;;;;;;4.80;75.32;101882.39;1803581;78;21074;-69
2021/10/01 02:32:22;;;;;;;15.15;10.30;;;;;;;4.80;75.37;101885.45;1795329;78;21002;-69
2021/10/01 02:34:50;;;;;;;14.83;10.58;;;;;;;4.83;75.50;101885.39;1797596;78;22253;-70
2021/10/01 02:37:21;;;;;;;17.55;10.30;;;;;;;4.82;75.51;101881.02;1803710;78;21097;-70
2021/10/01 02:39:49;;;;;;;18.37;10.95;;;;;;;4.82;75.51;101886.27;1818893;78;20956;-70
2021/10/01 02:42:17;;;;;;;14.43;11.22;;;;;;;4.81;75.58;101886.71;1814727;78;20940;-70
2021/10/01 02:44:45;;;;;;;17.15;11.12;;;;;;;4.80;75.61;101894.62;1816203;78;20983;-71
2021/10/01 02:47:11;;;;;;;14.70;11.22;;;;;;;4.79;75.58;101887.67;1815889;77;22789;-68
2021/10/01 02:49:40;;;;;;;16.12;11.22;;;;;;;4.76;75.45;101893.88;1750858;80;21047;-69
2021/10/01 02:52:28;;;;;;;20.62;12.25;;;;;;;4.74;75.42;101900.06;1726671;83;20988;-69
2021/10/01 02:55:16;;;;;;;17.62;12.63;;;;;;;4.72;75.22;101901.84;1730089;81;20968;-69
2021/10/01 02:57:52;;;;;;;18.98;13.98;;;;;;;4.69;75.00;101895.41;1755829;80;20989;-69
2021/10/01 03:00:18;;;;;;;46.45;26.23;;;;;;;4.64;74.86;101895.56;1762302;80;21894;-68
2021/10/01 03:02:48;;;;;;;147.17;74.42;;;;;;;4.60;74.88;101903.94;1764906;80;20938;-69
2021/10/01 03:05:15;;;;;;;118.57;60.83;;;;;;;4.56;74.79;101904.95;1751955;81;20964;-69
2021/10/01 03:07:42;;;;;;;54.77;31.52;;;;;;;4.51;74.62;101906.83;1735144;81;21472;-69
2021/10/01 03:10:10;;;;;;;66.62;34.60;;;;;;;4.46;74.61;101903.96;1751632;81;21106;-68
2021/10/01 03:12:37;;;;;;;59.45;35.70;;;;;;;4.43;74.60;101911.42;1722309;81;21428;-69
2021/10/01 03:15:07;;;;;;;66.10;38.75;;;;;;;4.42;74.54;101913.64;1722244;81;21055;-71
2021/10/01 03:17:35;;;;;;;25.40;17.85;;;;;;;4.40;74.49;101915.45;1709712;82;21447;-69
2021/10/01 03:20:02;;;;;;;19.17;14.85;;;;;;;4.41;74.63;101919.78;1749917;81;21470;-68
2021/10/01 03:22:32;;;;;;;16.40;12.35;;;;;;;4.41;74.83;101926.31;1746521;81;21492;-68
2021/10/01 03:25:01;;;;;;;15.78;12.80;;;;;;;4.44;75.06;101917.52;1738690;81;22651;-69
2021/10/01 03:27:30;;;;;;;15.38;12.43;;;;;;;4.43;75.16;101917.11;1739834;81;22309;-69
2021/10/01 03:30:00;;;;;;;14.43;11.33;;;;;;;4.45;75.29;101925.34;1724316;81;21437;-68
2021/10/01 03:32:27;;;;;;;15.68;11.57;;;;;;;4.44;75.33;101923.64;1717372;81;21011;-68
2021/10/01 03:34:54;;;;;;;18.92;11.83;;;;;;;4.46;75.41;101919.66;1758020;81;21059;-68
2021/10/01 03:37:21;;;;;;;13.48;11.03;;;;;;;4.45;75.38;101918.80;1742081;81;22468;-67
2021/10/01 03:40:03;;;;;;;15.80;12.53;;;;;;;4.44;75.40;101921.02;1757317;81;21019;-69
2021/10/01 03:42:31;;;;;;;16.50;13.00;;;;;;;4.41;75.44;101922.39;1747034;81;21018;-68
2021/10/01 03:44:58;;;;;;;18.75;13.65;;;;;;;4.41;75.52;101921.09;1739528;81;20956;-70
2021/10/01 03:47:25;;;;;;;17.87;14.40;;;;;;;4.41;75.51;101926.77;1745271;81;20932;-70
2021/10/01 03:49:52;;;;;;;20.57;15.60;;;;;;;4.40;75.55;101928.98;1757052;81;21738;-69
2021/10/01 03:52:18;;;;;;;37.93;26.00;;;;;;;4.40;75.56;101918.52;1751478;81;20998;-70
2021/10/01 03:54:48;;;;;;;51.15;35.43;;;;;;;4.39;75.55;101928.13;1758349;81;20980;-70
2021/10/01 03:57:15;;;;;;;44.40;28.35;;;;;;;4.40;75.44;101935.07;1750559;81;20936;-69
2021/10/01 03:59:43;;;;;;;33.67;24.07;;;;;;;4.39;75.25;101934.67;1743035;81;20995;-69
2021/10/01 04:02:09;;;;;;;32.75;24.57;;;;;;;4.37;75.12;101932.55;1741421;81;21760;-69
2021/10/01 04:04:38;;;;;;;18.35;13.98;;;;;;;4.37;75.11;101933.00;1751091;81;20936;-69
2021/10/01 04:07:05;;;;;;;27.45;19.07;;;;;;;4.35;75.13;101936.98;1745891;81;21035;-69
2021/10/01 04:09:32;;;;;;;28.83;20.37;;;;;;;4.34;75.23;101937.85;1745935;80;21869;-72
2021/10/01 04:11:59;;;;;;;17.40;12.53;;;;;;;4.35;75.24;101940.05;1743887;81;21469;-70
2021/10/01 04:14:28;;;;;;;18.10;12.25;;;;;;;4.36;75.34;101944.38;1735118;81;21870;-73
2021/10/01 04:16:55;;;;;;;15.20;10.75;;;;;;;4.40;75.56;101948.60;1742238;81;21326;-74
2021/10/01 04:19:23;;;;;;;14.05;11.48;;;;;;;4.43;75.73;101943.27;1761534;81;21062;-74
2021/10/01 04:21:50;;;;;;;14.53;11.18;;;;;;;4.44;75.87;101938.02;1765380;80;21019;-73
2021/10/01 04:24:17;;;;;;;15.38;11.28;;;;;;;4.48;76.02;101942.25;1756231;81;21463;-74
2021/10/01 04:26:49;;;;;;;16.48;11.53;;;;;;;4.52;76.16;101934.70;1738466;81;21842;-75
2021/10/01 04:29:16;;;;;;;15.70;12.70;;;;;;;4.54;76.25;101940.78;1740793;81;21422;-73
2021/10/01 04:31:43;;;;;;;17.20;12.23;;;;;;;4.59;76.40;101938.01;1737507;81;20992;-72
2021/10/01 04:34:09;;;;;;;16.32;11.97;;;;;;;4.63;76.52;101931.77;1706017;81;21036;-73
2021/10/01 04:36:36;;;;;;;15.05;13.00;;;;;;;4.64;76.57;101936.13;1754997;81;21395;-74
2021/10/01 04:39:03;;;;;;;20.23;15.35;;;;;;;4.69;76.65;101935.98;1765225;81;21854;-73
2021/10/01 04:41:31;;;;;;;17.82;13.80;;;;;;;4.75;76.77;101935.80;1762026;81;20979;-70
2021/10/01 04:43:58;;;;;;;17.85;12.85;;;;;;;4.81;76.89;101935.59;1735712;81;21118;-71
2021/10/01 04:46:38;;;;;;;15.20;13.00;;;;;;;4.84;76.96;101929.84;1735822;81;21047;-71
2021/10/01 04:49:04;;;;;;;16.23;12.65;;;;;;;4.87;77.07;101939.34;1718172;82;21331;-75
2021/10/01 04:51:31;;;;;;;16.60;13.15;;;;;;;4.89;77.10;101941.46;1697715;84;22825;-71
2021/10/01 04:53:57;;;;;;;17.85;14.40;;;;;;;4.91;77.14;101942.27;1739227;81;21616;-72
2021/10/01 04:56:25;;;;;;;16.75;13.45;;;;;;;4.97;77.21;101947.32;1727940;83;21009;-72
2021/10/01 04:58:52;;;;;;;16.30;13.93;;;;;;;5.05;77.33;101950.56;1743454;81;20992;-73
2021/10/01 05:01:37;;;;;;;14.93;13.05;;;;;;;5.14;77.38;101955.52;1709068;83;20973;-70
2021/10/01 05:04:23;;;;;;;19.32;14.45;;;;;;;5.23;77.45;101949.59;1759751;81;22855;-70
2021/10/01 05:07:00;;;;;;;18.80;13.70;;;;;;;5.37;77.60;101952.15;1695636;83;21017;-73
2021/10/01 05:09:46;;;;;;;17.42;13.22;;;;;;;5.46;77.71;101954.92;1759688;81;20952;-72
2021/10/01 05:12:16;;;;;;;16.70;12.95;;;;;;;5.57;77.84;101956.73;1699160;83;21424;-70
2021/10/01 05:15:03;;;;;;;18.35;13.65;;;;;;;5.67;77.96;101957.28;1729490;83;20992;-71
2021/10/01 05:17:49;;;;;;;17.37;13.32;;;;;;;5.81;78.08;101955.06;1713787;83;21853;-71
2021/10/01 05:20:30;;;;;;;17.42;13.38;;;;;;;5.96;78.28;101958.94;1721535;83;21012;-70
2021/10/01 05:22:58;;;;;;;17.80;15.13;;;;;;;6.11;78.46;101961.48;1697865;83;20973;-72
2021/10/01 05:25:26;;;;;;;25.50;19.77;;;;;;;6.26;78.63;101965.71;1733286;81;21008;-71
2021/10/01 05:27:54;;;;;;;23.87;21.30;;;;;;;6.42;78.76;101963.86;1727927;83;20934;-70
2021/10/01 05:30:21;;;;;;;21.68;16.52;;;;;;;6.55;78.82;101967.27;1741634;81;22193;-72
2021/10/01 05:32:47;;;;;;;20.85;14.90;;;;;;;6.72;78.91;101972.36;1729956;81;21427;-73
2021/10/01 05:35:14;;;;;;;18.40;13.58;;;;;;;6.86;78.97;101972.70;1708756;83;20965;-75
2021/10/01 05:37:42;;;;;;;14.13;11.88;;;;;;;7.01;79.05;101969.92;1736308;81;20991;-76
2021/10/01 05:40:11;;;;;;;15.90;13.38;;;;;;;7.17;79.14;101967.95;1698764;84;21447;-74
2021/10/01 05:42:39;;;;;;;16.67;12.95;;;;;;;7.34;79.13;101967.75;1729354;83;21865;-75
2021/10/01 05:45:08;;;;;;;15.72;12.13;;;;;;;7.49;79.12;101971.51;1727558;82;20983;-77
2021/10/01 05:47:54;;;;;;;17.73;11.83;;;;;;;7.64;79.05;101970.89;1770785;80;20976;-73
2021/10/01 05:50:42;;;;;;;15.95;10.32;;;;;;;7.83;78.88;101977.55;1772675;80;21047;-74
2021/10/01 05:56:30;;;;;;;14.43;10.95;;;;;;;8.12;78.51;101979.78;1823885;78;21833;-72
2021/10/01 05:58:58;;;;;;;16.37;11.28;;;;;;;8.27;78.31;101984.81;1727797;78;20979;-70
2021/10/01 06:01:25;;;;;;;13.00;10.43;;;;;;;8.38;78.12;101987.00;1816380;78;21054;-73
2021/10/01 06:03:53;;;;;;;14.18;10.08;;;;;;;8.47;77.91;101974.28;1811464;77;21412;-72
2021/10/01 06:06:20;;;;;;;13.58;10.53;;;;;;;8.59;77.78;101980.34;1791757;80;21022;-72
2021/10/01 06:08:46;;;;;;;14.33;10.70;;;;;;;8.72;77.51;101970.08;1810801;78;22185;-74
2021/10/01 06:11:12;;;;;;;13.15;10.58;;;;;;;8.81;77.22;101980.20;1792162;78;20995;-73
2021/10/01 06:13:40;;;;;;;16.48;10.95;;;;;;;8.87;76.83;101976.40;1808600;78;20987;-73
2021/10/01 06:16:09;;;;;;;13.28;10.28;;;;;;;8.94;76.43;101981.78;1807150;78;21086;-72
2021/10/01 06:18:35;;;;;;;13.58;10.63;;;;;;;9.00;76.13;101978.02;1805249;78;21054;-74
2021/10/01 06:21:02;;;;;;;12.30;9.40;;;;;;;9.08;75.87;101980.69;1799625;78;22156;-74
2021/10/01 06:23:33;;;;;;;13.03;10.23;;;;;;;9.15;75.49;101983.39;1802864;78;20947;-74
2021/10/01 06:25:56;;;;;;;12.05;9.63;;;;;;;9.21;75.21;101984.90;1792240;78;21022;-74
2021/10/01 06:28:23;;;;;;;13.62;10.75;;;;;;;9.27;74.79;101989.03;1815352;78;20975;-75
2021/10/01 06:30:50;;;;;;;13.93;9.40;;;;;;;9.31;74.54;101987.48;1794416;78;21098;-73
2021/10/01 06:33:16;;;;;;;15.68;9.98;;;;;;;9.37;74.20;101984.55;1762287;81;21821;-73
2021/10/01 06:35:44;;;;;;;11.43;9.08;;;;;;;9.43;73.85;101982.06;1774205;80;20984;-75
2021/10/01 06:38:11;;;;;;;14.35;9.35;;;;;;;9.49;73.46;101979.14;1823621;78;20972;-75
2021/10/01 06:40:38;;;;;;;13.13;9.98;;;;;;;9.57;73.20;101985.36;1809727;78;20991;-75
2021/10/01 06:43:08;;;;;;;12.45;9.63;;;;;;;9.64;72.86;101985.42;1808894;78;21006;-71
2021/10/01 06:45:36;;;;;;;14.43;10.00;;;;;;;9.71;72.48;101990.80;1746519;80;22411;-72
2021/10/01 07:45:43;;;;;;;10.75;7.97;;;;;;;11.92;64.25;101983.99;1737189;81;20999;-72
2021/10/01 08:20:50;;;;;;;8.45;5.60;;;;;;;12.97;55.51;101975.30;1737776;82;22284;-73
2021/10/01 08:23:16;;;;;;;10.82;5.78;;;;;;;13.04;55.58;101969.98;1742648;82;21075;-73
2021/10/01 08:25:43;;;;;;;7.15;5.55;;;;;;;13.11;54.83;101969.94;1716190;82;20995;-74
2021/10/01 08:28:10;;;;;;;8.25;5.28;;;;;;;13.16;54.24;101973.16;1729773;83;21071;-73
2021/10/01 08:30:38;;;;;;;9.13;5.90;;;;;;;13.20;53.51;101962.37;1675293;84;20980;-75
2021/10/01 08:33:04;;;;;;;10.95;6.20;;;;;;;13.14;52.67;101970.23;1709386;84;21818;-73
2021/10/01 08:35:32;;;;;;;8.68;5.42;;;;;;;13.13;53.27;101965.89;1737713;82;21042;-73
2021/10/01 08:37:59;;;;;;;7.67;5.15;;;;;;;13.20;53.25;101961.89;1738056;82;20964;-73
2021/10/01 08:40:26;;;;;;;8.98;6.28;;;;;;;13.27;52.78;101957.05;1742561;82;21427;-72
2021/10/01 08:42:53;;;;;;;8.33;5.80;;;;;;;13.32;52.95;101957.61;1743716;81;20999;-73
2021/10/01 08:45:21;;;;;;;7.85;6.50;;;;;;;13.38;53.28;101955.86;1729263;81;21822;-74
2021/10/01 08:47:48;;;;;;;9.13;6.90;;;;;;;13.40;52.93;101955.27;1772690;80;21316;-74
2021/10/01 08:50:19;;;;;;;8.23;6.15;;;;;;;13.42;53.91;101956.05;1772508;80;21491;-73
2021/10/01 08:52:46;;;;;;;7.83;5.92;;;;;;;13.55;53.73;101955.59;1792852;80;20948;-72
2021/10/01 08:55:12;;;;;;;6.22;5.30;;;;;;;13.61;52.48;101947.71;1823360;78;21026;-75
2021/10/01 08:57:39;;;;;;;6.30;4.20;;;;;;;13.65;52.50;101946.54;1823345;78;22172;-74
2021/10/01 09:00:10;;;;;;;7.92;4.72;;;;;;;13.74;50.50;101945.44;1805733;77;20983;-74
2021/10/01 09:02:37;;;;;;;4.28;3.60;;;;;;;13.87;49.45;101944.60;1799030;78;20995;-75
2021/10/01 09:05:05;;;;;;;8.48;4.00;;;;;;;14.01;48.49;101945.84;1823618;78;20967;-73
2021/10/01 09:07:31;;;;;;;7.10;3.72;;;;;;;14.08;46.78;101948.43;1823832;78;21452;-71
2021/10/01 09:09:59;;;;;;;5.15;3.75;;;;;;;14.18;47.26;101945.51;1798823;78;21000;-76
2021/10/01 09:12:25;;;;;;;6.17;3.25;;;;;;;14.33;46.46;101937.80;1822377;78;20987;-75
2021/10/01 09:14:56;;;;;;;5.58;3.40;;;;;;;14.43;44.34;101943.32;1822407;78;20999;-76
2021/10/01 09:17:28;;;;;;;5.40;3.55;;;;;;;14.43;44.24;101938.48;1750453;80;21047;-74
2021/10/01 09:19:54;;;;;;;4.60;3.42;;;;;;;14.39;43.64;101942.33;1760817;80;21047;-75
2021/10/01 09:22:37;;;;;;;5.22;3.50;;;;;;;14.40;45.56;101934.24;1728882;83;21845;-77
2021/10/01 09:25:20;;;;;;;6.42;4.00;;;;;;;14.52;45.22;101935.20;1760596;81;21012;-76
2021/10/01 09:27:52;;;;;;;7.33;4.08;;;;;;;14.52;44.41;101933.39;1790404;80;21550;-77
2021/10/01 09:30:21;;;;;;;6.50;3.40;;;;;;;14.55;45.36;101933.65;1790106;80;21058;-77
2021/10/01 09:33:13;;;;;;;6.72;2.70;;;;;;;14.70;44.90;101929.06;1790526;78;21043;-76
2021/10/01 09:35:41;;;;;;;4.30;3.25;;;;;;;14.84;42.05;101933.73;1759890;81;22542;-78
2021/10/01 09:38:20;;;;;;;3.77;3.20;;;;;;;15.03;43.04;101928.41;1790354;80;21011;-74
2021/10/01 09:41:11;;;;;;;8.30;3.52;;;;;;;15.25;42.83;101929.86;1790160;80;21585;-73
2021/10/01 09:43:38;;;;;;;5.35;2.98;;;;;;;15.46;42.22;101926.92;1790135;79;21082;-75
2021/10/01 09:46:09;;;;;;;4.17;2.92;;;;;;;15.68;42.19;101930.16;1790884;79;21505;-75
2021/10/01 09:48:37;;;;;;;5.60;2.33;;;;;;;15.88;42.45;101925.97;1762663;80;22246;-75
2021/10/01 09:51:09;;;;;;;4.65;2.55;;;;;;;16.11;39.73;101928.17;1809064;78;21596;-75
2021/10/01 09:53:46;;;;;;;4.58;2.80;;;;;;;16.22;38.67;101924.69;1824545;78;21709;-74
2021/10/01 09:56:26;;;;;;;5.35;2.50;;;;;;;16.39;37.80;101926.85;1816012;78;21014;-74
2021/10/01 09:59:19;;;;;;;4.10;2.47;;;;;;;16.36;37.08;101921.77;1751997;81;21032;-74
2021/10/01 10:02:13;;;;;;;3.77;2.27;;;;;;;16.34;36.62;101921.05;1725735;83;21801;-75
2021/10/01 10:04:46;;;;;;;3.80;2.15;;;;;;;16.18;37.43;101916.07;1727763;81;21086;-75
2021/10/01 10:07:19;;;;;;;5.67;2.35;;;;;;;16.33;37.16;101918.52;1730083;81;21036;-74
2021/10/01 10:09:58;;;;;;;4.90;2.27;;;;;;;16.49;37.99;101915.81;1755490;81;21027;-74
2021/10/01 10:12:44;;;;;;;4.22;2.10;;;;;;;16.70;37.46;101908.45;1755385;81;21015;-74
2021/10/01 10:15:14;;;;;;;4.05;2.17;;;;;;;16.93;35.97;101910.08;1755392;81;21840;-74
2021/10/01 10:17:50;;;;;;;3.02;2.10;;;;;;;16.90;35.91;101909.01;1755310;80;21480;-75
2021/10/01 10:20:19;;;;;;;4.05;2.08;;;;;;;16.82;36.02;101910.96;1755365;80;21074;-74
2021/10/01 10:22:46;;;;;;;3.52;2.30;;;;;;;16.87;36.19;101906.08;1755473;81;21472;-75
2021/10/01 10:25:12;;;;;;;3.27;2.22;;;;;;;16.90;36.49;101913.02;1754281;81;21007;-74
2021/10/01 10:27:39;;;;;;;4.37;2.15;;;;;;;16.99;36.51;101913.59;1755376;81;22170;-75
2021/10/01 10:30:08;;;;;;;2.62;2.00;;;;;;;17.06;36.12;101904.58;1755319;81;21055;-74
2021/10/01 10:32:35;;;;;;;3.47;2.50;;;;;;;17.23;36.54;101911.20;1702019;81;21038;-76
2021/10/01 10:35:06;;;;;;;4.00;2.27;;;;;;;17.32;35.25;101903.27;1755421;81;21362;-74
2021/10/01 10:37:43;;;;;;;5.85;2.30;;;;;;;17.24;35.41;101898.20;1752972;81;21008;-74
2021/10/01 10:40:18;;;;;;;4.97;2.70;;;;;;;17.19;35.81;101888.41;1756776;81;21847;-75
2021/10/01 10:42:48;;;;;;;5.90;2.33;;;;;;;17.34;36.35;101898.64;1755665;81;20944;-73
2021/10/01 10:45:20;;;;;;;3.75;2.67;;;;;;;17.60;36.87;101899.12;1756854;81;20932;-73
2021/10/01 10:48:08;;;;;;;4.90;2.22;;;;;;;17.78;35.19;101893.22;1753339;81;21083;-74
2021/10/01 10:50:44;;;;;;;4.45;2.52;;;;;;;17.91;35.78;101897.86;1759507;81;20992;-74
2021/10/01 10:53:14;;;;;;;5.83;2.67;;;;;;;18.17;36.04;101885.75;1768260;81;21841;-74
2021/10/01 10:55:52;;;;;;;4.35;2.60;;;;;;;18.33;34.90;101893.25;1826836;78;21066;-75
2021/10/01 10:58:27;;;;;;;4.62;2.40;;;;;;;18.37;34.80;101886.67;1819822;78;20998;-74
2021/10/01 11:01:01;;;;;;;4.25;2.40;;;;;;;18.44;34.55;101886.98;1794175;80;21482;-74
2021/10/01 11:03:28;;;;;;;6.50;2.20;;;;;;;18.35;35.17;101885.97;1793574;78;21007;-73
2021/10/01 11:06:17;;;;;;;2.80;2.30;;;;;;;18.41;34.37;101888.58;1794282;80;20971;-73
2021/10/01 11:08:49;;;;;;;6.50;2.40;;;;;;;18.41;34.79;101884.06;1794553;80;20998;-73
2021/10/01 11:11:36;;;;;;;4.35;2.60;;;;;;;18.49;34.10;101882.05;1794358;80;20964;-74
2021/10/01 11:14:19;;;;;;;3.77;2.50;;;;;;;18.48;33.98;101871.00;1769933;80;21058;-74
2021/10/01 11:16:57;;;;;;;5.00;2.22;;;;;;;18.43;33.23;101873.23;1795662;78;20964;-73
2021/10/01 11:19:41;;;;;;;4.60;2.15;;;;;;;18.29;33.34;101873.13;1794267;80;21825;-72
2021/10/01 11:22:38;;;;;;;9.20;2.05;;;;;;;18.12;33.71;101867.91;1794106;80;21339;-73
2021/10/01 11:25:20;;;;;;;5.83;2.27;;;;;;;18.05;35.34;101868.11;1794323;80;20951;-73
2021/10/01 11:27:55;;;;;;;7.62;2.25;;;;;;;18.27;33.04;101863.91;1794239;80;20952;-74
2021/10/01 11:30:22;;;;;;;3.98;2.10;;;;;;;18.21;33.07;101858.23;1794277;80;21082;-74
2021/10/01 11:32:49;;;;;;;5.85;2.20;;;;;;;18.21;33.95;101857.75;1794843;78;21802;-74
2021/10/01 11:35:16;;;;;;;4.00;2.30;;;;;;;18.35;33.65;101861.05;1794216;80;20940;-74
2021/10/01 11:37:45;;;;;;;9.58;3.40;;;;;;;18.50;34.22;101860.51;1794351;80;20999;-74
2021/10/01 11:40:26;;;;;;;7.65;3.00;;;;;;;18.78;33.55;101853.55;1794172;80;21010;-74
2021/10/01 11:42:59;;;;;;;5.85;2.70;;;;;;;18.92;32.93;101850.98;1793773;80;21042;-75
2021/10/01 11:45:32;;;;;;;5.35;2.72;;;;;;;18.90;32.77;101849.40;1794789;80;21809;-74
2021/10/01 11:48:09;;;;;;;;;;;;;;;18.97;33.38;101849.20;1796810;80;21117;-74
2021/10/01 11:50:45;;;;;;;3.65;2.40;;;;;;;19.14;33.47;101849.84;1810800;78;20183;-75
2021/10/01 11:53:22;;;;;;;2.83;2.37;;;;;;;19.38;34.18;101842.19;1794505;78;21478;-74
2021/10/01 11:56:02;;;;;;;5.90;2.77;;;;;;;19.69;33.04;101844.72;1792852;78;20944;-74
2021/10/01 11:58:32;;;;;;;5.17;2.67;;;;;;;19.73;32.53;101843.43;1796246;78;21847;-74
2021/10/01 12:01:17;;;;;;;4.42;2.77;;;;;;;19.66;33.44;101839.63;1796410;80;21351;-74
2021/10/01 12:03:54;;;;;;;4.75;3.00;;;;;;;19.91;32.89;101838.16;1773394;80;20925;-74
2021/10/01 12:06:23;;;;;;;4.67;2.80;;;;;;;20.03;31.62;101840.14;1796587;78;21030;-74
2021/10/01 12:08:58;;;;;;;4.35;2.77;;;;;;;19.88;31.81;101841.98;1793407;80;20983;-73
2021/10/01 12:11:31;;;;;;;4.42;3.15;;;;;;;19.78;31.84;101842.48;1793733;80;22389;-75
2021/10/01 12:14:14;;;;;;;5.17;3.00;;;;;;;19.69;32.30;101835.34;1789943;80;20987;-75
2021/10/01 12:17:01;;;;;;;4.53;2.98;;;;;;;19.57;31.88;101836.48;1793368;80;21077;-74
2021/10/01 12:19:29;;;;;;;6.80;3.30;;;;;;;19.38;32.43;101831.97;1793409;80;20955;-74
2021/10/01 12:22:11;;;;;;;5.30;3.20;;;;;;;19.34;33.63;101839.45;1793269;79;21457;-74
2021/10/01 12:24:52;;;;;;;10.53;2.75;;;;;;;19.51;33.11;101829.00;1794655;78;22449;-75
2021/10/01 12:27:24;;;;;;;6.42;2.95;;;;;;;19.61;33.50;101828.52;1792604;80;21050;-75
2021/10/01 12:29:51;;;;;;;7.40;3.22;;;;;;;19.93;32.60;101830.30;1789875;80;21011;-75
2021/10/01 12:32:20;;;;;;;7.00;3.33;;;;;;;20.27;32.66;101815.82;1793272;80;21446;-73
2021/10/01 12:34:57;;;;;;;11.70;4.78;;;;;;;20.51;31.86;101817.95;1764610;80;20966;-74
2021/10/01 12:37:31;;;;;;;11.93;6.15;;;;;;;20.39;31.24;101811.59;1793323;79;21919;-75
2021/10/01 12:40:00;;;;;;;18.85;11.00;;;;;;;20.23;32.13;101817.59;1794302;78;20999;-75
2021/10/01 12:42:34;;;;;;;18.52;10.68;;;;;;;20.20;32.18;101815.22;1793623;80;21363;-74
2021/10/01 12:45:09;;;;;;;14.25;8.15;;;;;;;20.09;32.29;101815.42;1816401;78;21450;-75
2021/10/01 12:47:40;;;;;;;6.87;3.70;;;;;;;20.05;31.64;101809.49;1802895;78;20959;-74
2021/10/01 12:50:10;;;;;;;5.53;3.40;;;;;;;19.85;31.54;101817.28;1795161;79;21815;-74
2021/10/01 12:52:39;;;;;;;6.78;4.45;;;;;;;19.52;31.99;101814.61;1772523;79;20962;-74
2021/10/01 12:55:08;;;;;;;11.90;3.20;;;;;;;19.39;32.73;101812.22;1761747;81;20940;-74
2021/10/01 12:57:46;;;;;;;8.90;4.30;;;;;;;19.46;32.50;101806.64;1760636;81;20961;-75
2021/10/01 13:00:17;;;;;;;6.67;3.30;;;;;;;19.54;33.22;101805.92;1761463;81;20992;-74
2021/10/01 13:03:06;;;;;;;4.05;3.20;;;;;;;19.67;32.77;101809.15;1761904;80;21818;-74
2021/10/01 13:05:44;;;;;;;5.78;3.25;;;;;;;19.63;32.16;101811.29;1761863;80;21031;-70
2021/10/01 13:08:17;;;;;;;4.62;3.30;;;;;;;19.52;32.58;101818.14;1761458;81;21035;-73
2021/10/01 13:10:55;;;;;;;8.98;3.47;;;;;;;19.42;32.80;101807.94;1761704;81;21075;-75
2021/10/01 13:13:23;;;;;;;6.53;3.40;;;;;;;19.41;33.41;101805.75;1761851;81;21003;-74
2021/10/01 13:16:00;;;;;;;6.72;3.75;;;;;;;19.66;33.09;101810.98;1735224;81;22483;-74
2021/10/01 13:18:32;;;;;;;5.85;3.95;;;;;;;19.83;32.73;101804.02;1761716;81;20932;-72
2021/10/01 13:21:14;;;;;;;4.92;3.20;;;;;;;19.79;32.45;101802.64;1761268;81;21011;-73